Time;durP1;ratioP1;P1;durP2;ratioP2;P2;SDS_P1;SDS_P2;PMS_P1;PMS_P2;Temp;Humidity;BMP_temperature;BMP_pressure;BME280_temperature;BME280_humidity;BME280_pressure;Samples;Min_cycle;Max_cycle;Signal;HPM_P1;HPM_P2
2024/03/12 00:02:57;;;;;;;4.25;3.30;;;;;;;9.70;67.29;99589.88;10446683;28;20056;-61
2024/03/12 00:08:00;;;;;;;2.80;2.40;;;;;;;9.70;67.54;99591.72;10451216;28;20057;-60
2024/03/12 00:13:03;;;;;;;4.53;3.15;;;;;;;9.64;67.44;99597.56;10439264;28;20041;-60
2024/03/12 00:18:05;;;;;;;4.53;2.80;;;;;;;9.60;67.56;99604.09;10446469;28;20062;-59
2024/03/12 00:23:07;;;;;;;3.83;2.78;;;;;;;9.51;67.81;99590.63;10422165;28;20106;-60
2024/03/12 00:28:11;;;;;;;3.28;2.80;;;;;;;9.51;68.36;99601.25;10451354;28;20549;-60
2024/03/12 00:33:13;;;;;;;5.00;2.75;;;;;;;9.46;68.60;99608.78;10407815;28;20061;-59
2024/03/12 00:38:17;;;;;;;4.05;3.10;;;;;;;9.45;68.62;99607.09;10448959;28;20153;-60
2024/03/12 00:43:20;;;;;;;2.33;2.13;;;;;;;9.38;68.85;99613.91;10451394;28;20086;-60
2024/03/12 00:48:22;;;;;;;3.75;3.45;;;;;;;9.33;69.36;99624.09;10448499;28;20622;-60
2024/03/12 00:53:25;;;;;;;3.00;2.65;;;;;;;9.30;69.49;99625.19;10430912;28;20048;-61
2024/03/12 00:58:28;;;;;;;3.25;2.80;;;;;;;9.24;69.92;99624.88;10447292;28;20135;-59
2024/03/12 01:03:30;;;;;;;3.83;3.00;;;;;;;9.13;70.14;99617.84;10445658;28;20051;-60
2024/03/12 01:08:31;;;;;;;3.58;3.10;;;;;;;9.14;70.29;99635.44;10433689;28;20102;-60
2024/03/12 01:13:33;;;;;;;3.97;3.58;;;;;;;9.10;70.50;99642.81;10417027;28;20577;-59
2024/03/12 01:18:35;;;;;;;5.20;3.10;;;;;;;9.10;70.90;99655.28;10446677;28;20056;-62
2024/03/12 01:23:37;;;;;;;4.20;3.28;;;;;;;9.12;70.90;99654.16;10427966;28;20131;-60
2024/03/12 01:28:39;;;;;;;4.05;3.63;;;;;;;9.05;71.22;99652.97;10432186;28;20530;-59
2024/03/12 01:33:41;;;;;;;4.03;3.60;;;;;;;9.07;71.12;99639.56;10432002;28;20068;-60
2024/03/12 01:38:42;;;;;;;5.88;3.42;;;;;;;9.00;71.62;99647.22;10451914;28;20052;-60
2024/03/12 01:43:54;;;;;;;3.90;3.53;;;;;;;9.03;71.50;99644.31;10440279;28;20052;-60
2024/03/12 01:48:58;;;;;;;3.83;3.42;;;;;;;9.00;72.00;99647.22;10419441;28;20049;-60
2024/03/12 01:54:03;;;;;;;3.75;3.40;;;;;;;9.00;71.84;99649.88;10440514;28;20059;-61
2024/03/12 01:59:05;;;;;;;;;;;;;;;8.89;72.67;99660.53;10442874;28;20102;-60
2024/03/12 02:04:07;;;;;;;6.30;3.55;;;;;;;8.83;72.66;99644.16;10445339;28;19935;-60
2024/03/12 02:09:12;;;;;;;4.80;3.20;;;;;;;8.65;73.71;99643.88;10440759;28;20136;-61
2024/03/12 02:14:16;;;;;;;3.92;3.30;;;;;;;8.57;74.44;99642.81;10424067;28;20087;-60
2024/03/12 02:19:18;;;;;;;4.63;3.63;;;;;;;8.58;74.90;99652.44;10419988;28;20087;-59
2024/03/12 02:24:19;;;;;;;4.15;3.63;;;;;;;8.52;74.99;99660.91;10412154;28;20056;-60
2024/03/12 02:29:21;;;;;;;4.03;3.58;;;;;;;8.54;74.86;99656.31;10422138;28;20133;-59
2024/03/12 02:34:23;;;;;;;4.68;3.15;;;;;;;8.61;75.20;99665.47;10399285;28;22849;-59
2024/03/12 02:39:25;;;;;;;4.82;3.55;;;;;;;8.61;74.76;99665.47;10431849;28;21361;-60
2024/03/12 02:44:26;;;;;;;6.38;4.03;;;;;;;8.58;76.06;99682.47;10440930;28;20698;-59
2024/03/12 02:49:28;;;;;;;4.50;3.70;;;;;;;8.67;75.61;99683.53;10403511;28;20973;-61
2024/03/12 02:54:30;;;;;;;4.82;4.35;;;;;;;8.67;75.73;99692.31;10440573;28;20109;-60
2024/03/12 02:59:31;;;;;;;4.35;3.80;;;;;;;8.67;75.86;99687.03;10429939;28;20052;-60
2024/03/12 03:04:36;;;;;;;4.28;3.80;;;;;;;8.74;75.84;99699.81;10435481;28;20700;-60
2024/03/12 03:09:38;;;;;;;7.22;4.25;;;;;;;8.61;76.83;99707.91;10434146;28;20044;-60
2024/03/12 03:14:40;;;;;;;4.65;3.95;;;;;;;8.60;77.29;99707.09;10443087;28;20048;-60
2024/03/12 03:19:41;;;;;;;4.85;4.10;;;;;;;8.78;77.25;99718.00;10414345;28;21326;-60
2024/03/12 03:24:43;;;;;;;6.28;4.22;;;;;;;8.59;76.79;99683.34;10447603;28;20055;-60
2024/03/12 03:29:45;;;;;;;6.22;4.22;;;;;;;8.59;77.94;99712.50;10434123;28;20537;-59
2024/03/12 03:34:46;;;;;;;5.38;4.53;;;;;;;8.66;78.74;99721.63;10442354;28;20306;-60
2024/03/12 03:39:49;;;;;;;7.45;4.85;;;;;;;8.77;78.42;99716.31;10438302;28;20686;-60
2024/03/12 03:44:51;;;;;;;4.50;4.07;;;;;;;8.84;77.93;99735.22;10438853;28;20525;-60
2024/03/12 03:49:52;;;;;;;6.93;4.78;;;;;;;8.79;78.00;99732.94;10434255;28;20056;-59
2024/03/12 03:54:54;;;;;;;4.32;3.60;;;;;;;8.84;78.13;99733.44;10447061;28;20048;-61
2024/03/12 03:59:56;;;;;;;5.63;4.20;;;;;;;8.75;78.17;99726.22;10423435;28;20055;-60
2024/03/12 04:04:59;;;;;;;5.82;4.80;;;;;;;8.80;78.84;99744.44;10446945;28;20375;-61
2024/03/12 04:10:02;;;;;;;9.90;4.55;;;;;;;8.77;78.96;99742.84;10402683;28;20053;-60
2024/03/12 04:15:04;;;;;;;5.05;4.43;;;;;;;8.83;79.39;99754.78;10447309;28;20052;-60
2024/03/12 04:20:11;;;;;;;5.15;4.65;;;;;;;8.85;79.54;99763.47;10443877;28;20502;-60
2024/03/12 04:25:15;;;;;;;5.35;4.07;;;;;;;8.80;80.26;99760.34;10449976;28;20042;-61
2024/03/12 04:30:18;;;;;;;5.67;4.90;;;;;;;8.76;80.55;99762.38;10433788;28;20509;-60
2024/03/12 04:35:20;;;;;;;6.47;4.97;;;;;;;8.83;81.01;99771.53;10444754;28;20052;-59
2024/03/12 04:40:22;;;;;;;4.97;4.47;;;;;;;8.91;81.02;99783.38;10406595;28;20066;-61
2024/03/12 04:45:24;;;;;;;5.60;4.40;;;;;;;8.96;80.84;99778.50;10422285;28;20452;-63
2024/03/12 04:50:26;;;;;;;6.00;4.72;;;;;;;8.85;81.50;99782.88;10425936;28;20554;-60
2024/03/12 04:55:28;;;;;;;5.78;4.93;;;;;;;8.77;82.49;99793.28;10402557;28;20107;-59
2024/03/12 05:00:30;;;;;;;6.07;5.20;;;;;;;8.73;82.74;99786.53;10400520;28;20561;-60
2024/03/12 05:05:33;;;;;;;6.45;5.40;;;;;;;8.78;83.14;99802.94;10438409;28;20139;-59
2024/03/12 05:10:37;;;;;;;6.73;5.10;;;;;;;8.90;82.91;99818.81;10439838;28;20049;-61
2024/03/12 05:15:39;;;;;;;6.28;5.68;;;;;;;8.95;83.07;99816.66;10438365;28;20045;-61
2024/03/12 05:20:40;;;;;;;6.10;5.50;;;;;;;8.96;83.10;99827.16;10437624;28;20140;-60
2024/03/12 05:25:44;;;;;;;6.65;5.28;;;;;;;8.85;83.85;99835.13;10436268;28;20055;-60
2024/03/12 05:30:48;;;;;;;7.93;5.10;;;;;;;8.90;83.54;99843.53;10439723;28;20694;-60
2024/03/12 05:35:52;;;;;;;6.22;5.40;;;;;;;8.93;83.51;99850.44;10437160;28;20145;-61
2024/03/12 05:51:31;;;;;;;7.57;5.00;;;;;;;8.89;83.94;99849.84;10434606;28;20060;-59
2024/03/12 05:56:37;;;;;;;7.57;5.00;;;;;;;8.95;83.66;99859.13;10418296;28;20052;-60
2024/03/12 06:01:39;;;;;;;6.15;5.18;;;;;;;8.90;83.93;99861.28;10441166;28;20048;-60
2024/03/12 06:06:41;;;;;;;6.47;4.88;;;;;;;9.01;83.84;99874.56;10407479;28;20618;-60
2024/03/12 06:11:42;;;;;;;5.60;5.05;;;;;;;9.00;83.88;99883.50;10423508;28;20052;-61
2024/03/12 06:16:45;;;;;;;6.30;5.70;;;;;;;9.00;83.68;99886.16;10427634;28;20064;-59
2024/03/12 06:21:47;;;;;;;5.28;4.65;;;;;;;8.91;83.58;99877.09;10440206;28;20047;-61
2024/03/12 06:26:48;;;;;;;6.15;4.93;;;;;;;8.97;83.89;99904.97;10443104;28;20205;-62
2024/03/12 06:31:56;;;;;;;6.63;5.95;;;;;;;8.95;84.56;99896.31;10427305;28;20048;-60
2024/03/12 06:36:57;;;;;;;6.35;5.30;;;;;;;8.84;85.03;99921.88;10416100;28;20155;-60
2024/03/12 06:42:07;;;;;;;7.15;5.60;;;;;;;8.56;85.98;99898.47;10438669;28;20599;-60
2024/03/12 06:47:09;;;;;;;6.13;4.88;;;;;;;8.82;85.35;99929.09;10421441;28;20109;-62
2024/03/12 06:52:11;;;;;;;7.25;5.32;;;;;;;8.92;85.34;99936.38;10423517;28;20076;-60
2024/03/12 06:57:14;;;;;;;5.75;5.15;;;;;;;8.87;85.14;99939.34;10410187;28;20507;-60
2024/03/12 07:02:19;;;;;;;6.43;5.25;;;;;;;8.94;85.26;99942.38;10414725;28;20060;-61
2024/03/12 07:07:21;;;;;;;5.30;4.80;;;;;;;9.02;85.13;99945.25;10437317;28;20064;-60
2024/03/12 07:12:23;;;;;;;7.85;5.03;;;;;;;9.00;84.66;99931.28;10409738;28;20115;-60
2024/03/12 07:17:24;;;;;;;6.85;5.63;;;;;;;9.02;84.91;99948.78;10437097;28;20049;-59
2024/03/12 07:22:28;;;;;;;6.10;5.53;;;;;;;9.11;84.67;99954.31;10439436;28;20049;-60
2024/03/12 07:27:29;;;;;;;7.22;5.85;;;;;;;9.20;84.49;99957.09;10419386;28;20601;-60
2024/03/12 07:32:31;;;;;;;5.85;4.93;;;;;;;9.36;84.20;99953.22;10442987;28;20048;-60
2024/03/12 07:37:40;;;;;;;6.20;5.57;;;;;;;9.43;83.49;99966.84;10429351;28;20087;-60
2024/03/12 07:42:44;;;;;;;6.88;6.18;;;;;;;9.41;83.40;99961.66;10445705;28;20603;-59
2024/03/12 07:47:47;;;;;;;6.00;5.30;;;;;;;9.46;83.59;99969.28;10432598;28;20045;-60
2024/03/12 07:52:50;;;;;;;8.43;6.90;;;;;;;9.45;84.08;99978.19;10447322;28;20456;-61
2024/03/12 07:57:52;;;;;;;7.35;5.80;;;;;;;9.45;84.71;99972.88;10439076;28;20055;-60
2024/03/12 08:02:55;;;;;;;6.53;5.90;;;;;;;9.68;83.79;99971.03;10448072;28;20049;-60
2024/03/12 08:07:56;;;;;;;8.30;6.55;;;;;;;10.01;82.27;99980.72;10415301;28;20081;-60
2024/03/12 08:12:59;;;;;;;6.30;5.70;;;;;;;10.16;81.29;99986.56;10444542;28;20123;-60
2024/03/12 08:18:04;;;;;;;8.45;6.80;;;;;;;10.26;80.79;99989.31;10419113;28;20111;-60
2024/03/12 08:23:20;;;;;;;6.70;6.00;;;;;;;10.23;81.18;99989.56;10429024;28;20055;-61
2024/03/12 08:28:21;;;;;;;8.27;6.85;;;;;;;10.05;81.10;99981.31;10403276;28;20044;-60
2024/03/12 08:33:24;;;;;;;7.88;6.38;;;;;;;10.08;81.79;100002.31;10445178;28;20057;-60
2024/03/12 08:38:28;;;;;;;9.05;7.03;;;;;;;9.99;82.47;99998.59;10448549;28;20835;-61
2024/03/12 08:43:30;;;;;;;8.63;7.32;;;;;;;9.96;82.95;99998.84;10433131;28;20052;-61
2024/03/12 08:48:34;;;;;;;7.30;6.50;;;;;;;10.05;82.82;100000.75;10421244;28;20059;-59
2024/03/12 08:53:36;;;;;;;8.27;6.88;;;;;;;10.21;82.47;100003.00;10392747;28;20060;-60
2024/03/12 08:58:38;;;;;;;8.10;6.90;;;;;;;10.40;81.75;100017.47;10430352;28;20083;-61
2024/03/12 09:03:41;;;;;;;11.15;7.32;;;;;;;10.39;81.73;100021.09;10442276;28;20044;-62
2024/03/12 09:08:50;;;;;;;10.65;7.72;;;;;;;10.49;81.79;100023.81;10426853;28;20549;-61
2024/03/12 09:13:54;;;;;;;10.02;7.90;;;;;;;10.60;81.17;100021.97;10447872;28;20045;-59
2024/03/12 09:18:56;;;;;;;10.30;8.48;;;;;;;10.63;81.07;100017.34;10454738;28;20044;-62
2024/03/12 09:23:57;;;;;;;9.20;8.27;;;;;;;10.64;81.05;100025.19;10394331;28;20418;-62
2024/03/12 09:29:05;;;;;;;9.63;8.10;;;;;;;10.80;80.66;100030.06;10415959;28;20045;-61
2024/03/12 09:34:09;;;;;;;9.23;8.23;;;;;;;10.84;80.25;100027.97;10442657;28;20066;-62
2024/03/12 09:39:11;;;;;;;12.80;9.15;;;;;;;10.90;79.82;100046.09;10437916;28;20048;-61
2024/03/12 09:44:14;;;;;;;7.70;6.90;;;;;;;10.86;80.35;100026.88;10443083;28;20056;-61
2024/03/12 09:49:19;;;;;;;10.98;8.93;;;;;;;11.03;79.79;100046.75;10435249;28;20049;-61
2024/03/12 09:54:21;;;;;;;11.05;9.00;;;;;;;11.04;79.07;100052.94;10407669;28;20053;-60
2024/03/12 09:59:24;;;;;;;9.15;8.10;;;;;;;11.17;79.04;100056.22;10434180;28;20060;-61
2024/03/12 10:04:26;;;;;;;12.15;8.95;;;;;;;11.13;78.56;100049.47;10401436;28;20139;-62
2024/03/12 10:09:29;;;;;;;9.93;8.73;;;;;;;11.14;78.51;100067.97;10405706;28;20541;-61
2024/03/12 10:14:35;;;;;;;10.18;8.35;;;;;;;11.09;79.04;100078.19;10394984;28;20122;-61
2024/03/12 10:19:37;;;;;;;9.82;8.77;;;;;;;10.96;79.17;100072.22;10418400;28;20135;-61
2024/03/12 10:24:39;;;;;;;10.00;8.25;;;;;;;10.87;80.39;100087.16;10437723;28;21238;-60
2024/03/12 10:29:40;;;;;;;20.08;10.18;;;;;;;10.90;80.79;100081.56;10424449;28;20650;-62
2024/03/12 10:34:42;;;;;;;13.60;9.05;;;;;;;11.03;80.84;100075.19;10424904;28;20056;-62
2024/03/12 10:39:44;;;;;;;10.90;8.80;;;;;;;11.09;80.13;100088.00;10414902;28;20048;-61
2024/03/12 10:44:45;;;;;;;10.70;9.38;;;;;;;10.96;80.27;100093.53;10403111;28;20063;-60
2024/03/12 10:49:47;;;;;;;12.40;9.48;;;;;;;10.98;80.57;100096.06;10439716;28;20732;-61
2024/03/12 10:54:49;;;;;;;11.45;9.05;;;;;;;10.91;81.08;100075.28;10440918;28;20101;-61
2024/03/12 11:00:08;;;;;;;13.70;9.60;;;;;;;11.15;80.24;100082.13;10420326;28;20052;-62
2024/03/12 11:05:12;;;;;;;14.63;9.32;;;;;;;11.22;79.90;100085.97;10439725;28;20064;-64
2024/03/12 11:10:14;;;;;;;11.63;8.93;;;;;;;11.27;78.82;100083.78;10417253;28;20195;-62
2024/03/12 11:15:18;;;;;;;13.50;9.98;;;;;;;11.35;78.78;100071.56;10429343;28;20052;-61
2024/03/12 11:20:23;;;;;;;10.02;9.02;;;;;;;11.60;77.57;100081.78;10445228;28;20737;-61
2024/03/12 11:25:43;;;;;;;12.65;10.05;;;;;;;11.66;76.30;100083.09;10414970;28;20694;-61
2024/03/12 11:30:55;;;;;;;12.13;8.85;;;;;;;11.67;74.00;100077.59;10431791;28;20134;-61
2024/03/12 11:35:57;;;;;;;9.50;8.50;;;;;;;11.75;72.51;100079.59;10435993;28;20052;-61
2024/03/12 11:41:03;;;;;;;11.55;9.13;;;;;;;11.84;71.62;100077.94;10440845;28;20135;-61
2024/03/12 11:46:07;;;;;;;10.85;9.13;;;;;;;11.86;70.73;100092.00;10444190;28;20070;-60
2024/03/12 11:51:11;;;;;;;8.77;7.83;;;;;;;11.88;71.84;100083.88;10427677;28;20422;-60
2024/03/12 11:56:18;;;;;;;10.75;8.82;;;;;;;11.79;72.47;100064.19;10425719;28;20308;-60
2024/03/12 12:01:24;;;;;;;12.02;9.25;;;;;;;12.09;72.16;100083.81;10426329;28;20049;-60
2024/03/12 12:06:29;;;;;;;11.32;9.38;;;;;;;13.08;68.62;100083.66;10433143;28;20060;-62
2024/03/12 12:11:34;;;;;;;9.50;8.45;;;;;;;14.58;60.78;100077.28;10409563;28;20056;-61
2024/03/12 12:16:35;;;;;;;10.88;9.05;;;;;;;14.08;61.25;100079.47;10399583;28;20044;-61
2024/03/12 12:21:38;;;;;;;10.43;8.32;;;;;;;13.74;59.31;100077.41;10440326;28;20491;-60
2024/03/12 12:26:44;;;;;;;8.80;7.90;;;;;;;13.27;59.16;100072.91;10444279;28;20103;-60
2024/03/12 12:31:46;;;;;;;11.43;8.35;;;;;;;13.01;60.64;100075.34;10412108;28;20249;-62
2024/03/12 12:36:50;;;;;;;11.27;8.70;;;;;;;12.70;60.63;100067.53;10429174;28;20173;-61
2024/03/12 12:41:52;;;;;;;10.10;7.50;;;;;;;12.64;62.37;100081.47;10412023;28;20368;-59
2024/03/12 12:46:57;;;;;;;7.95;7.10;;;;;;;12.65;62.97;100066.28;10438309;28;20049;-60
2024/03/12 12:52:00;;;;;;;9.30;7.75;;;;;;;12.62;62.83;100074.56;10399430;28;20045;-61
2024/03/12 12:57:06;;;;;;;9.63;7.82;;;;;;;12.63;63.03;100066.41;10418363;28;20052;-60
2024/03/12 13:02:16;;;;;;;9.53;6.47;;;;;;;12.58;63.08;100060.69;10429132;28;20134;-61
2024/03/12 13:07:33;;;;;;;8.30;6.43;;;;;;;12.38;63.79;100059.81;10406705;28;20299;-60
2024/03/12 13:12:34;;;;;;;;;;;;;;;12.42;64.58;100068.41;10442051;28;20061;-60
2024/03/12 13:17:36;;;;;;;8.35;6.00;;;;;;;12.46;64.30;100064.44;10442679;28;19930;-60
2024/03/12 13:22:37;;;;;;;7.68;6.88;;;;;;;12.35;64.14;100055.59;10418401;28;20682;-61
2024/03/12 13:27:40;;;;;;;7.95;6.30;;;;;;;12.55;64.59;100060.97;10414709;28;20254;-61
2024/03/12 13:32:42;;;;;;;10.05;6.28;;;;;;;12.60;64.76;100069.38;10415284;28;20049;-61
2024/03/12 13:37:45;;;;;;;7.72;6.93;;;;;;;12.65;63.61;100072.44;10411622;28;20048;-62
2024/03/12 13:42:48;;;;;;;10.35;6.50;;;;;;;12.54;63.66;100064.59;10424943;28;20069;-60
2024/03/12 13:47:49;;;;;;;6.78;5.90;;;;;;;12.43;63.96;100094.94;10416510;28;20052;-60
2024/03/12 13:52:52;;;;;;;10.20;6.95;;;;;;;12.23;66.19;100085.22;10447215;28;20127;-60
2024/03/12 13:57:53;;;;;;;8.18;6.95;;;;;;;12.02;73.37;100087.03;10441160;28;20170;-61
2024/03/12 14:02:55;;;;;;;9.50;7.32;;;;;;;11.88;72.52;100078.53;10438384;28;20059;-61
2024/03/12 14:07:56;;;;;;;9.55;8.32;;;;;;;11.70;73.45;100099.66;10401968;28;20103;-61
2024/03/12 14:12:58;;;;;;;8.75;7.85;;;;;;;11.49;72.03;100097.91;10423391;28;20825;-61
2024/03/12 14:18:00;;;;;;;11.43;7.68;;;;;;;11.45;71.67;100094.66;10444492;28;20063;-61
2024/03/12 14:23:03;;;;;;;11.32;8.02;;;;;;;11.48;73.38;100098.84;10441368;28;20532;-60
2024/03/12 14:28:05;;;;;;;9.85;8.15;;;;;;;11.77;72.29;100092.78;10419112;28;20064;-63
2024/03/12 14:33:07;;;;;;;9.77;7.13;;;;;;;11.97;69.91;100091.91;10406724;28;20143;-61
2024/03/12 14:38:09;;;;;;;10.25;8.00;;;;;;;12.04;67.30;100094.91;10445853;28;20048;-61
2024/03/12 14:43:10;;;;;;;8.50;7.53;;;;;;;11.97;67.32;100077.75;10440876;28;20044;-60
2024/03/12 14:48:12;;;;;;;11.07;8.40;;;;;;;11.98;66.46;100085.59;10402869;28;20154;-60
2024/03/12 14:53:14;;;;;;;11.30;9.52;;;;;;;11.88;65.12;100090.03;10417984;28;20139;-62
2024/03/12 14:58:17;;;;;;;11.30;9.25;;;;;;;11.92;66.78;100080.78;10416371;28;20056;-61
2024/03/12 15:03:20;;;;;;;12.35;10.35;;;;;;;11.86;66.79;100076.00;10423859;28;20053;-61
2024/03/12 15:08:22;;;;;;;14.85;10.77;;;;;;;11.70;66.31;100076.50;10400853;28;20155;-61
2024/03/12 15:13:24;;;;;;;13.73;11.85;;;;;;;11.58;66.92;100078.44;10429022;28;20058;-61
2024/03/12 15:18:27;;;;;;;13.75;10.90;;;;;;;11.62;67.27;100085.19;10400242;28;20699;-59
2024/03/12 15:23:29;;;;;;;16.05;12.18;;;;;;;11.44;65.93;100086.75;10399163;28;20140;-62
2024/03/12 15:28:31;;;;;;;17.17;12.32;;;;;;;11.51;66.25;100085.25;10443119;28;20063;-62
2024/03/12 15:33:34;;;;;;;16.30;12.80;;;;;;;11.70;65.30;100083.69;10444213;28;20051;-61
2024/03/12 15:38:36;;;;;;;13.27;11.70;;;;;;;11.83;64.07;100097.63;10415947;28;20055;-60
2024/03/12 15:43:38;;;;;;;14.80;11.90;;;;;;;11.93;62.77;100093.16;10422689;28;20079;-61
2024/03/12 15:48:39;;;;;;;17.40;14.07;;;;;;;11.80;60.27;100089.84;10452595;28;20156;-60
2024/03/12 15:53:42;;;;;;;17.10;13.80;;;;;;;11.77;61.90;100091.00;10429201;28;20056;-61
2024/03/12 15:58:44;;;;;;;16.98;12.52;;;;;;;11.65;62.21;100098.25;10433493;28;20538;-60
2024/03/12 16:03:46;;;;;;;16.77;12.52;;;;;;;11.39;62.17;100095.16;10430872;28;20053;-60
2024/03/12 16:08:47;;;;;;;15.30;12.70;;;;;;;11.25;62.04;100083.03;10424060;28;20498;-60
2024/03/12 16:13:49;;;;;;;20.05;13.35;;;;;;;11.36;61.89;100094.59;10434239;28;20056;-60
2024/03/12 16:18:50;;;;;;;16.15;13.10;;;;;;;11.26;62.65;100081.22;10436801;28;20058;-60
2024/03/12 16:23:52;;;;;;;16.20;13.65;;;;;;;11.12;61.68;100109.03;10445206;28;20048;-62
2024/03/12 16:28:54;;;;;;;16.70;13.77;;;;;;;11.10;61.62;100105.69;10439257;28;20641;-63
2024/03/12 16:33:56;;;;;;;16.88;13.45;;;;;;;11.04;61.53;100100.88;10413239;28;20056;-62
2024/03/12 16:38:57;;;;;;;18.70;13.90;;;;;;;11.02;62.18;100098.34;10447965;28;20044;-61
2024/03/12 16:43:59;;;;;;;15.68;12.80;;;;;;;11.04;62.78;100101.72;10439802;28;20102;-61
2024/03/12 16:49:03;;;;;;;15.43;12.32;;;;;;;11.04;62.83;100106.19;10446231;28;20136;-62
2024/03/12 16:54:06;;;;;;;18.52;13.38;;;;;;;10.96;63.57;100107.69;10432403;28;20114;-61
2024/03/12 16:59:08;;;;;;;16.77;13.90;;;;;;;11.05;64.35;100111.41;10427526;28;20086;-61
2024/03/12 17:04:11;;;;;;;17.95;13.90;;;;;;;10.96;65.70;100109.50;10443522;28;20048;-61
2024/03/12 17:09:13;;;;;;;15.70;11.85;;;;;;;10.92;66.38;100119.56;10437103;28;20075;-60
2024/03/12 17:14:15;;;;;;;15.90;13.60;;;;;;;10.72;67.53;100120.38;10410660;28;20530;-62
2024/03/12 17:19:28;;;;;;;17.77;13.63;;;;;;;10.65;68.53;100121.88;10392958;28;20714;-61
2024/03/12 17:24:30;;;;;;;18.83;15.18;;;;;;;10.52;69.38;100128.19;10426698;28;20103;-61
2024/03/12 17:29:32;;;;;;;19.80;14.90;;;;;;;10.44;69.50;100130.66;10442323;28;20106;-61
2024/03/12 17:34:34;;;;;;;16.90;13.93;;;;;;;10.52;69.67;100133.53;10437433;28;20143;-61
2024/03/12 17:39:36;;;;;;;19.75;14.82;;;;;;;10.40;68.96;100129.22;10396523;28;20170;-62
2024/03/12 17:44:39;;;;;;;17.35;13.82;;;;;;;10.45;69.62;100137.69;10418295;28;20645;-61
2024/03/12 17:49:46;;;;;;;16.90;14.60;;;;;;;10.47;69.66;100151.69;10433473;28;20048;-61
2024/03/12 17:54:48;;;;;;;18.15;14.52;;;;;;;10.45;69.49;100153.66;10398968;28;20045;-62
2024/03/12 17:59:50;;;;;;;18.80;14.15;;;;;;;10.47;69.59;100159.69;10405267;28;20049;-65
2024/03/12 18:04:52;;;;;;;18.00;14.32;;;;;;;10.43;69.76;100151.13;10453463;28;20183;-65
2024/03/12 18:09:58;;;;;;;17.57;14.00;;;;;;;10.41;69.66;100146.88;10434222;28;20579;-63
2024/03/12 18:15:00;;;;;;;18.33;14.20;;;;;;;10.42;69.71;100160.06;10411908;28;20668;-66
2024/03/12 18:20:11;;;;;;;16.65;14.23;;;;;;;10.33;70.76;100166.13;10440246;28;20060;-64
2024/03/12 18:25:15;;;;;;;18.65;13.85;;;;;;;10.29;71.86;100158.50;10417690;28;20045;-63
2024/03/12 18:30:16;;;;;;;18.03;14.47;;;;;;;10.22;72.97;100159.00;10414435;28;20110;-66
2024/03/12 18:35:19;;;;;;;20.40;14.85;;;;;;;10.35;73.38;100158.03;10438192;28;20254;-64
2024/03/12 18:40:21;;;;;;;19.17;14.82;;;;;;;10.31;73.69;100164.53;10427916;28;20128;-64
2024/03/12 18:45:24;;;;;;;23.05;16.45;;;;;;;10.26;74.61;100171.06;10426380;28;20052;-64
2024/03/12 18:50:27;;;;;;;21.90;17.13;;;;;;;10.23;75.59;100173.97;10445540;28;20048;-68
2024/03/12 18:55:30;;;;;;;22.23;17.33;;;;;;;10.24;76.07;100183.63;10443813;28;20542;-62
2024/03/12 19:00:34;;;;;;;25.15;19.95;;;;;;;10.16;77.73;100175.41;10439098;28;20064;-62
2024/03/12 19:05:37;;;;;;;;;;;;;;;10.15;79.05;100178.19;10442437;28;20064;-62
2024/03/12 19:10:39;;;;;;;28.42;22.15;;;;;;;10.06;80.01;100180.63;10431855;28;19952;-64
2024/03/12 19:15:42;;;;;;;29.48;22.23;;;;;;;9.94;81.15;100181.63;10442005;28;20147;-66
2024/03/12 19:20:44;;;;;;;27.90;22.57;;;;;;;10.02;81.39;100183.66;10437491;28;20782;-63
2024/03/12 19:25:46;;;;;;;28.67;22.08;;;;;;;9.95;82.63;100166.50;10421939;28;20103;-65
2024/03/12 19:30:50;;;;;;;29.98;23.02;;;;;;;10.00;83.43;100193.59;10436877;28;20064;-63
2024/03/12 19:35:53;;;;;;;30.80;24.33;;;;;;;9.97;84.18;100183.16;10449737;28;20056;-62
2024/03/12 19:40:57;;;;;;;28.00;22.38;;;;;;;9.97;84.92;100177.84;10451377;28;20134;-64
2024/03/12 19:45:58;;;;;;;28.88;22.23;;;;;;;10.03;84.84;100193.34;10449241;28;20059;-63
2024/03/12 19:51:00;;;;;;;28.38;23.15;;;;;;;9.93;86.85;100184.41;10425279;28;20060;-63
2024/03/12 19:56:02;;;;;;;29.42;22.65;;;;;;;9.89;87.60;100181.97;10440122;28;20452;-62
2024/03/12 20:01:04;;;;;;;32.45;23.15;;;;;;;9.75;90.39;100165.41;10448037;28;20063;-62
2024/03/12 20:06:05;;;;;;;32.92;23.55;;;;;;;9.80;91.33;100180.03;10438786;28;20057;-63
2024/03/12 20:11:10;;;;;;;33.00;24.20;;;;;;;9.84;92.34;100184.13;10435022;28;20813;-62
2024/03/12 20:16:14;;;;;;;29.27;24.42;;;;;;;9.75;93.95;100179.53;10428083;28;20054;-62
2024/03/12 20:21:16;;;;;;;31.92;24.55;;;;;;;9.82;93.98;100190.56;10446145;28;20127;-62
2024/03/12 20:26:19;;;;;;;32.28;24.55;;;;;;;9.72;94.76;100185.09;10450683;28;20141;-65
2024/03/12 20:31:22;;;;;;;34.25;25.17;;;;;;;9.62;96.98;100192.09;10445802;28;20052;-64
2024/03/12 20:36:23;;;;;;;29.00;22.65;;;;;;;9.66;97.47;100191.75;10450682;28;20049;-64
2024/03/12 20:41:26;;;;;;;35.00;25.27;;;;;;;9.67;98.32;100189.94;10440824;28;20065;-63
2024/03/12 20:46:30;;;;;;;33.50;24.67;;;;;;;9.71;98.54;100191.38;10434685;28;20067;-62
2024/03/12 20:51:33;;;;;;;31.25;23.88;;;;;;;9.70;98.27;100173.75;10438384;28;20059;-62
2024/03/12 20:56:37;;;;;;;33.65;24.27;;;;;;;9.72;99.08;100180.63;10444276;28;20049;-65
2024/03/12 21:01:43;;;;;;;32.55;24.98;;;;;;;9.72;99.44;100183.28;10434679;28;20708;-63
2024/03/12 21:06:46;;;;;;;35.93;25.43;;;;;;;9.60;99.82;100180.75;10402224;28;20187;-66
2024/03/12 21:11:49;;;;;;;36.80;24.13;;;;;;;9.69;100.00;100172.88;10442242;28;20526;-64
2024/03/12 21:16:54;;;;;;;24.85;18.60;;;;;;;9.65;100.00;100157.31;10449504;28;20538;-64
2024/03/12 21:21:56;;;;;;;26.85;22.58;;;;;;;9.70;99.96;100160.47;10452777;28;20048;-63
2024/03/12 21:26:57;;;;;;;30.42;21.90;;;;;;;9.67;99.78;100158.88;10438428;28;20055;-64
2024/03/12 21:31:59;;;;;;;29.63;23.05;;;;;;;9.63;100.00;100145.97;10428635;28;20048;-63
2024/03/12 21:37:02;;;;;;;29.55;23.10;;;;;;;9.63;100.00;100157.44;10437339;28;20059;-63
2024/03/12 21:42:05;;;;;;;28.42;22.05;;;;;;;9.61;100.00;100147.88;10448665;28;20062;-64
2024/03/12 21:47:09;;;;;;;29.85;22.25;;;;;;;9.64;100.00;100155.63;10435790;28;20051;-64
2024/03/12 21:52:10;;;;;;;26.38;21.17;;;;;;;9.67;100.00;100147.44;10441217;28;20133;-65
2024/03/12 21:57:12;;;;;;;27.73;20.63;;;;;;;9.65;100.00;100144.03;10440608;28;20079;-68
2024/03/12 22:02:14;;;;;;;28.30;21.33;;;;;;;9.67;100.00;100137.63;10428739;28;20235;-64
2024/03/12 22:07:18;;;;;;;25.10;20.90;;;;;;;9.47;100.00;100114.41;10443649;28;20634;-64
2024/03/12 22:12:21;;;;;;;26.88;20.63;;;;;;;9.38;100.00;100113.31;10428763;28;20052;-65
2024/03/12 22:17:23;;;;;;;27.40;21.55;;;;;;;9.38;100.00;100110.66;10436255;28;20106;-63
2024/03/12 22:22:24;;;;;;;25.10;19.60;;;;;;;9.46;100.00;100129.53;10430617;28;20128;-64
2024/03/12 22:27:27;;;;;;;25.20;20.17;;;;;;;9.51;100.00;100127.34;10428300;28;20090;-64
2024/03/12 22:32:29;;;;;;;25.50;20.23;;;;;;;9.51;100.00;100127.34;10436078;28;20079;-64
2024/03/12 22:37:33;;;;;;;23.05;18.27;;;;;;;9.61;100.00;100143.44;10419033;28;20529;-64
2024/03/12 22:42:34;;;;;;;20.52;17.50;;;;;;;9.65;100.00;100138.69;10434836;28;20056;-63
2024/03/12 22:47:36;;;;;;;22.20;16.90;;;;;;;9.64;100.00;100137.03;10441305;28;20079;-64
2024/03/12 22:52:39;;;;;;;21.85;16.63;;;;;;;9.70;100.00;100133.88;10430953;28;20127;-63
2024/03/12 22:57:41;;;;;;;21.77;17.63;;;;;;;9.63;100.00;100138.00;10414769;28;20056;-63
2024/03/12 23:02:44;;;;;;;21.85;17.75;;;;;;;9.54;100.00;100120.94;10428058;28;20052;-63
2024/03/12 23:07:45;;;;;;;24.40;17.02;;;;;;;9.56;100.00;100126.97;10448940;28;20638;-65
2024/03/12 23:12:47;;;;;;;24.45;17.90;;;;;;;9.42;100.00;100109.47;10449821;28;20242;-66
2024/03/12 23:17:49;;;;;;;17.58;14.50;;;;;;;9.48;100.00;100111.63;10413173;28;20041;-65
2024/03/12 23:22:51;;;;;;;17.10;15.27;;;;;;;9.50;100.00;100112.38;10452915;28;20264;-64